Alleghany, Virginia
Current Conditions -  °F | °C
As of 5:35 AM on Thursday 23 Oct 2014 (Local Time) from KHSP Reporting Station
Overcast Overcast  
Wind Chill: 30°   Ceiling: 600
Heat Index: 38°   Visibility: 10mi
Dew Point: 37°   Wind: 15mph
Humidity: 93%   Direction: 310°NW
Pressure: 30.01"   Gusts: 21mph
Location:  37.7731°N, 80.0632°W
Report Text: KHSP 230935Z AUTO 31013G18KT 10SM OVC006 04/03 A3001 RMK AO2 T00350025
Loading
Personal Weather Stations






























Interactive Weather Map
Tropical Storm Tracking
New forecast layout! Learn more

10-Day Weather Forecast

Advertisements
Track Severe Weather on mobile